createdAt,value
2023-04-03T00:00:57.440Z,101331.47
2023-04-03T00:03:59.691Z,101339.06
2023-04-03T00:07:01.887Z,101339.81
2023-04-03T00:10:06.766Z,101332.78
2023-04-03T00:13:09.287Z,101339.59
2023-04-03T00:16:12.217Z,101345.75
2023-04-03T00:19:14.082Z,101344.84
2023-04-03T00:22:15.948Z,101348.69
2023-04-03T00:25:20.205Z,101345.75
2023-04-03T00:28:22.058Z,101352.44
2023-04-03T00:31:23.955Z,101345.00
2023-04-03T00:34:25.902Z,101345.47
2023-04-03T00:37:27.955Z,101348.81
2023-04-03T00:40:36.144Z,101356.66
2023-04-03T00:43:38.459Z,101357.78
2023-04-03T00:46:40.482Z,101359.94
2023-04-03T00:49:43.964Z,101362.09
2023-04-03T00:52:48.949Z,101366.13
2023-04-03T00:55:53.270Z,101365.41
2023-04-03T00:58:59.305Z,101361.47
2023-04-03T01:02:02.215Z,101362.63
2023-04-03T01:05:05.746Z,101361.69
2023-04-03T01:08:12.122Z,101359.81
2023-04-03T01:11:15.785Z,101359.38
2023-04-03T01:14:18.566Z,101359.84
2023-04-03T01:17:32.967Z,101356.50
2023-04-03T01:20:50.918Z,101353.06
2023-04-03T01:24:06.577Z,101348.16
2023-04-03T01:27:13.018Z,101355.03
2023-04-03T01:30:21.804Z,101350.50
2023-04-03T01:33:26.719Z,101357.13
2023-04-03T01:36:36.358Z,101357.84
2023-04-03T01:39:39.194Z,101360.97
2023-04-03T01:42:41.285Z,101361.69
2023-04-03T01:45:43.205Z,101356.53
2023-04-03T01:48:49.792Z,101360.09
2023-04-03T01:51:52.061Z,101369.94
2023-04-03T01:54:54.018Z,101366.19
2023-04-03T01:57:56.229Z,101371.63
2023-04-03T02:00:59.795Z,101369.94
2023-04-03T02:04:03.501Z,101368.34
2023-04-03T02:07:05.681Z,101369.78
2023-04-03T02:10:09.738Z,101373.06
2023-04-03T02:13:11.991Z,101370.72
2023-04-03T02:16:17.286Z,101365.78
2023-04-03T02:19:21.202Z,101369.56
2023-04-03T02:22:23.375Z,101370.50
2023-04-03T02:25:29.398Z,101372.88
2023-04-03T02:28:31.874Z,101367.47
2023-04-03T02:31:34.596Z,101361.59
2023-04-03T02:34:42.289Z,101366.97
2023-04-03T02:37:47.248Z,101370.03
2023-04-03T02:40:50.031Z,101373.78
2023-04-03T02:43:52.496Z,101369.09
2023-04-03T02:46:54.289Z,101366.00
2023-04-03T02:49:57.941Z,101374.22
2023-04-03T02:52:59.956Z,101367.13
2023-04-03T02:56:01.723Z,101359.41
2023-04-03T02:59:04.370Z,101359.16
2023-04-03T03:02:08.621Z,101356.06
2023-04-03T03:05:11.976Z,101351.16
2023-04-03T03:08:14.703Z,101346.88
2023-04-03T03:11:16.754Z,101349.50
2023-04-03T03:14:18.939Z,101357.75
2023-04-03T03:17:21.280Z,101354.69
2023-04-03T03:20:24.550Z,101352.59
2023-04-03T03:23:30.763Z,101347.44
2023-04-03T03:26:33.269Z,101354.50
2023-04-03T03:29:38.896Z,101351.00
2023-04-03T03:32:49.743Z,101362.31
2023-04-03T03:35:54.526Z,101362.31
2023-04-03T03:38:57.072Z,101358.59
2023-04-03T03:41:59.972Z,101361.69
2023-04-03T03:45:01.985Z,101362.38
2023-04-03T03:48:04.307Z,101366.38
2023-04-03T03:51:08.220Z,101373.44
2023-04-03T03:54:12.732Z,101363.81
2023-04-03T03:57:14.870Z,101363.78
2023-04-03T04:00:17.396Z,101371.53
2023-04-03T04:03:26.428Z,101365.22
2023-04-03T04:06:29.613Z,101369.66
2023-04-03T04:09:36.713Z,101368.50
2023-04-03T04:12:38.756Z,101379.97
2023-04-03T04:15:41.504Z,101368.94
2023-04-03T04:18:43.598Z,101370.56
2023-04-03T04:21:47.054Z,101362.31
2023-04-03T04:24:49.304Z,101359.72
2023-04-03T04:27:51.240Z,101360.16
2023-04-03T04:30:59.117Z,101367.66
2023-04-03T04:34:04.568Z,101357.09
2023-04-03T04:37:08.218Z,101359.88
2023-04-03T04:40:11.153Z,101354.50
2023-04-03T04:43:15.462Z,101358.78
2023-04-03T04:46:21.304Z,101364.44
2023-04-03T04:49:30.337Z,101363.06
2023-04-03T04:52:33.676Z,101356.97
2023-04-03T04:55:36.337Z,101365.66
2023-04-03T04:58:39.385Z,101360.47
2023-04-03T05:01:42.547Z,101364.00
2023-04-03T05:04:54.548Z,101372.94
2023-04-03T05:08:03.869Z,101368.25
2023-04-03T05:11:06.371Z,101375.75
2023-04-03T05:14:09.257Z,101374.56
2023-04-03T05:17:12.255Z,101382.81
2023-04-03T05:20:19.878Z,101380.94
2023-04-03T05:23:24.254Z,101385.88
2023-04-03T05:26:27.662Z,101396.44
2023-04-03T05:29:29.880Z,101398.78
2023-04-03T05:32:34.140Z,101401.13
2023-04-03T05:35:51.977Z,101399.25
2023-04-03T05:39:06.604Z,101406.75
2023-04-03T05:42:12.722Z,101404.88
2023-04-03T05:45:14.684Z,101398.75
2023-04-03T05:48:16.766Z,101407.22
2023-04-03T05:51:20.981Z,101395.00
2023-04-03T05:54:29.055Z,101412.88
2023-04-03T05:57:46.050Z,101410.50
2023-04-03T06:00:48.593Z,101410.94
2023-04-03T06:03:51.357Z,101410.25
2023-04-03T06:06:55.654Z,101409.81
2023-04-03T06:09:59.002Z,101410.47
2023-04-03T06:13:03.064Z,101417.53
2023-04-03T06:16:06.582Z,101414.03
2023-04-03T06:19:09.027Z,101422.50
2023-04-03T06:22:14.345Z,101420.38
2023-04-03T06:25:19.771Z,101425.03
2023-04-03T06:28:21.683Z,101426.41
2023-04-03T06:31:23.631Z,101437.88
2023-04-03T06:34:25.747Z,101428.47
2023-04-03T06:37:29.109Z,101432.13
2023-04-03T06:40:32.499Z,101427.97
2023-04-03T06:43:34.837Z,101428.00
2023-04-03T06:46:36.934Z,101432.19
2023-04-03T06:49:38.920Z,101431.81
2023-04-03T06:52:44.489Z,101433.69
2023-04-03T06:55:48.391Z,101434.94
2023-04-03T06:58:51.537Z,101443.34
2023-04-03T07:01:53.444Z,101437.66
2023-04-03T07:04:56.205Z,101437.69
2023-04-03T07:07:58.401Z,101449.59
2023-04-03T07:11:02.009Z,101450.31
2023-04-03T07:14:04.375Z,101453.75
2023-04-03T07:17:06.347Z,101450.69
2023-04-03T07:20:10.083Z,101451.50
2023-04-03T07:23:12.146Z,101456.31
2023-04-03T07:26:15.627Z,101461.72
2023-04-03T07:29:17.955Z,101462.19
2023-04-03T07:32:19.771Z,101466.09
2023-04-03T07:35:21.587Z,101470.78
2023-04-03T07:38:23.419Z,101469.16
2023-04-03T07:41:26.568Z,101469.56
2023-04-03T07:44:28.754Z,101466.44
2023-04-03T07:47:31.400Z,101465.72
2023-04-03T07:50:33.441Z,101469.38
2023-04-03T07:53:39.692Z,101461.56
2023-04-03T07:56:43.833Z,101481.44
2023-04-03T07:59:45.682Z,101475.31
2023-04-03T08:02:52.538Z,101475.28
2023-04-03T08:05:54.957Z,101480.63
2023-04-03T08:08:56.945Z,101481.31
2023-04-03T08:12:03.870Z,101484.75
2023-04-03T08:15:09.199Z,101478.94
2023-04-03T08:18:13.240Z,101476.31
2023-04-03T08:21:15.138Z,101481.38
2023-04-03T08:24:16.889Z,101483.00
2023-04-03T08:27:20.208Z,101485.72
2023-04-03T08:30:22.550Z,101486.41
2023-04-03T08:33:24.347Z,101483.59
2023-04-03T08:36:28.470Z,101483.91
2023-04-03T08:39:30.645Z,101472.69
2023-04-03T08:42:44.256Z,101479.91
2023-04-03T08:45:49.626Z,101466.72
2023-04-03T08:48:52.127Z,101479.06
2023-04-03T08:51:55.499Z,101476.28
2023-04-03T08:55:02.070Z,101468.44
2023-04-03T08:58:08.064Z,101477.81
2023-04-03T09:01:19.990Z,101481.06
2023-04-03T09:04:21.867Z,101479.78
2023-04-03T09:07:34.146Z,101481.97
2023-04-03T09:10:39.864Z,101484.63
2023-04-03T09:13:51.839Z,101482.59
2023-04-03T09:16:57.178Z,101481.59
2023-04-03T09:20:11.400Z,101486.84
2023-04-03T09:26:53.049Z,101477.91
2023-04-03T09:29:58.480Z,101472.66
2023-04-03T09:33:00.762Z,101468.69
2023-04-03T09:36:02.683Z,101462.72
2023-04-03T09:39:06.150Z,101466.41
2023-04-03T09:42:19.331Z,101476.03
2023-04-03T09:45:26.977Z,101475.00
2023-04-03T09:48:29.295Z,101464.91
2023-04-03T09:51:32.297Z,101462.69
2023-04-03T09:54:38.696Z,101460.72
2023-04-03T09:57:40.563Z,101465.47
2023-04-03T10:00:43.793Z,101467.16
2023-04-03T10:03:47.660Z,101462.53
2023-04-03T10:06:52.093Z,101462.13
2023-04-03T10:09:57.496Z,101467.09
2023-04-03T10:13:07.410Z,101457.94
2023-04-03T10:16:18.052Z,101450.25
2023-04-03T10:19:37.708Z,101461.03
2023-04-03T10:22:57.221Z,101442.41
2023-04-03T10:26:17.915Z,101452.09
2023-04-03T10:29:38.963Z,101446.56
2023-04-03T10:32:58.909Z,101446.78
2023-04-03T10:36:12.896Z,101440.06
2023-04-03T10:39:27.515Z,101452.81
2023-04-03T10:42:36.925Z,101436.34
2023-04-03T10:45:54.547Z,101437.94
2023-04-03T10:49:10.361Z,101439.41
2023-04-03T10:52:18.563Z,101444.50
2023-04-03T10:55:32.687Z,101444.09
2023-04-03T10:58:39.910Z,101450.53
2023-04-03T11:01:45.297Z,101447.53
2023-04-03T11:04:53.532Z,101436.94
2023-04-03T11:08:03.720Z,101444.03
2023-04-03T11:11:10.665Z,101428.34
2023-04-03T11:14:17.267Z,101434.72
2023-04-03T11:17:29.652Z,101435.31
2023-04-03T11:20:38.731Z,101430.09
2023-04-03T11:23:49.559Z,101439.06
2023-04-03T11:26:55.581Z,101431.78
2023-04-03T11:29:59.349Z,101418.09
2023-04-03T11:33:23.401Z,101423.50
2023-04-03T11:36:33.555Z,101425.25
2023-04-03T11:39:40.329Z,101431.75
2023-04-03T11:42:44.028Z,101425.81
2023-04-03T11:45:56.103Z,101427.03
2023-04-03T11:48:59.196Z,101425.31
2023-04-03T11:52:03.647Z,101420.00
2023-04-03T11:55:55.810Z,101417.69
2023-04-03T11:59:22.475Z,101395.47
2023-04-03T12:02:51.213Z,101407.41
2023-04-03T12:06:01.763Z,101401.47
2023-04-03T12:09:24.450Z,101400.41
2023-04-03T12:12:37.481Z,101397.94
2023-04-03T12:15:52.371Z,101403.66
2023-04-03T12:19:05.492Z,101400.19
2023-04-03T12:22:16.899Z,101391.84
2023-04-03T12:25:55.752Z,101379.19
2023-04-03T12:29:00.133Z,101399.72
2023-04-03T12:32:13.781Z,101394.69
2023-04-03T12:35:22.567Z,101391.88
2023-04-03T12:38:59.801Z,101377.78
2023-04-03T12:42:18.840Z,101390.94
2023-04-03T12:45:23.749Z,101380.09
2023-04-03T12:48:27.700Z,101368.69
2023-04-03T12:51:39.763Z,101363.72
2023-04-03T12:54:45.153Z,101370.41
2023-04-03T12:57:47.470Z,101362.22
2023-04-03T13:01:02.973Z,101363.53
2023-04-03T13:04:08.099Z,101376.22
2023-04-03T13:07:21.117Z,101367.94
2023-04-03T13:10:24.147Z,101371.88
2023-04-03T13:13:27.362Z,101355.31
2023-04-03T13:16:30.687Z,101352.31
2023-04-03T13:19:32.660Z,101354.56
2023-04-03T13:22:40.256Z,101363.03
2023-04-03T13:25:44.520Z,101349.81
2023-04-03T13:28:48.210Z,101352.31
2023-04-03T13:31:54.918Z,101346.06
2023-04-03T13:35:00.428Z,101333.81
2023-04-03T13:38:24.298Z,101338.72
2023-04-03T13:41:30.016Z,101340.03
2023-04-03T13:44:34.968Z,101343.13
2023-04-03T13:47:41.843Z,101348.28
2023-04-03T13:51:00.604Z,101338.16
2023-04-03T13:54:18.853Z,101341.88
2023-04-03T13:57:20.857Z,101335.19
2023-04-03T14:00:38.095Z,101335.88
2023-04-03T14:03:46.395Z,101342.88
2023-04-03T14:06:50.096Z,101341.78
2023-04-03T14:09:53.284Z,101328.13
2023-04-03T14:12:57.004Z,101333.13
2023-04-03T14:16:05.732Z,101327.72
2023-04-03T14:19:25.816Z,101325.94
2023-04-03T14:22:31.155Z,101315.34
2023-04-03T14:25:33.849Z,101326.06
2023-04-03T14:28:36.280Z,101321.09
2023-04-03T14:31:38.382Z,101321.88
2023-04-03T14:34:44.316Z,101311.94
2023-04-03T14:37:47.174Z,101292.88
2023-04-03T14:40:49.530Z,101307.34
2023-04-03T14:43:52.557Z,101303.81
2023-04-03T14:46:57.257Z,101279.16
2023-04-03T14:50:02.356Z,101293.31
2023-04-03T14:53:06.558Z,101289.03
2023-04-03T14:56:14.389Z,101301.19
2023-04-03T14:59:18.458Z,101298.41
2023-04-03T15:02:30.508Z,101295.78
2023-04-03T15:05:33.888Z,101293.97
2023-04-03T15:08:42.029Z,101295.94
2023-04-03T15:11:44.167Z,101284.44
2023-04-03T15:14:52.519Z,101286.78
2023-04-03T15:17:59.107Z,101287.38
2023-04-03T15:21:03.468Z,101286.03
2023-04-03T15:24:06.372Z,101280.28
2023-04-03T15:27:10.421Z,101284.03
2023-04-03T15:30:17.396Z,101284.75
2023-04-03T15:33:19.452Z,101292.97
2023-04-03T15:39:31.658Z,101284.13
2023-04-03T15:42:34.934Z,101285.72
2023-04-03T15:45:39.702Z,101282.69
2023-04-03T15:48:42.720Z,101276.91
2023-04-03T15:51:46.269Z,101284.88
2023-04-03T15:54:48.272Z,101282.94
2023-04-03T15:57:50.298Z,101274.66
2023-04-03T16:00:52.734Z,101273.75
2023-04-03T16:03:55.151Z,101271.59
2023-04-03T16:06:58.168Z,101288.38
2023-04-03T16:10:03.661Z,101283.50
2023-04-03T16:13:07.052Z,101288.59
2023-04-03T16:16:09.256Z,101281.94
2023-04-03T16:19:11.276Z,101283.94
2023-04-03T16:22:16.111Z,101288.72
2023-04-03T16:25:21.835Z,101290.88
2023-04-03T16:28:23.872Z,101298.94
2023-04-03T16:31:27.076Z,101287.16
2023-04-03T16:34:31.943Z,101296.28
2023-04-03T16:37:35.581Z,101298.63
2023-04-03T16:40:38.428Z,101283.19
2023-04-03T16:46:46.246Z,101285.00
2023-04-03T16:49:49.598Z,101295.03
2023-04-03T16:52:52.811Z,101289.78
2023-04-03T16:55:55.977Z,101298.28
2023-04-03T16:58:57.860Z,101296.88
2023-04-03T17:01:59.683Z,101289.78
2023-04-03T17:05:01.526Z,101306.28
2023-04-03T17:08:04.715Z,101300.81
2023-04-03T17:11:06.493Z,101301.03
2023-04-03T17:14:08.384Z,101303.66
2023-04-03T17:17:10.788Z,101302.50
2023-04-03T17:20:21.997Z,101296.97
2023-04-03T17:23:26.561Z,101294.34
2023-04-03T17:26:28.507Z,101290.44
2023-04-03T17:29:30.424Z,101296.25
2023-04-03T17:32:32.167Z,101297.34
2023-04-03T17:35:34.048Z,101302.44
2023-04-03T17:38:42.038Z,101303.75
2023-04-03T17:41:45.977Z,101311.41
2023-04-03T17:48:13.715Z,101314.94
2023-04-03T17:51:20.939Z,101316.00
2023-04-03T17:54:24.422Z,101317.31
2023-04-03T17:57:26.168Z,101318.66
2023-04-03T18:00:28.463Z,101319.16
2023-04-03T18:03:30.179Z,101327.13
2023-04-03T18:06:36.947Z,101331.00
2023-04-03T18:09:41.243Z,101329.66
2023-04-03T18:12:43.687Z,101328.53
2023-04-03T18:15:45.926Z,101333.56
2023-04-03T18:18:50.702Z,101333.44
2023-04-03T18:21:58.000Z,101337.38
2023-04-03T18:25:01.359Z,101334.81
2023-04-03T18:28:06.446Z,101344.72
2023-04-03T18:31:10.985Z,101347.19
2023-04-03T18:34:12.842Z,101350.09
2023-04-03T18:37:15.400Z,101352.03
2023-04-03T18:40:18.685Z,101356.56
2023-04-03T18:43:20.719Z,101351.41
2023-04-03T18:46:22.856Z,101352.72
2023-04-03T18:49:24.711Z,101350.06
2023-04-03T18:52:32.955Z,101356.66
2023-04-03T18:55:36.088Z,101362.69
2023-04-03T18:58:38.320Z,101363.47
2023-04-03T19:01:40.832Z,101361.72
2023-04-03T19:04:42.782Z,101367.44
2023-04-03T19:07:44.970Z,101372.25
2023-04-03T19:10:48.899Z,101366.41
2023-04-03T19:14:10.745Z,101372.47
2023-04-03T19:17:12.871Z,101377.97
2023-04-03T19:20:15.500Z,101381.84
2023-04-03T19:23:18.829Z,101387.97
2023-04-03T19:26:29.614Z,101384.91
2023-04-03T19:29:31.587Z,101389.25
2023-04-03T19:32:33.891Z,101389.34
2023-04-03T19:35:44.034Z,101396.53
2023-04-03T19:38:46.546Z,101397.25
2023-04-03T19:41:50.855Z,101392.59
2023-04-03T19:44:55.484Z,101396.59
2023-04-03T19:48:01.254Z,101403.63
2023-04-03T19:51:04.734Z,101407.66
2023-04-03T19:54:06.790Z,101407.09
2023-04-03T19:57:10.146Z,101407.69
2023-04-03T20:00:16.512Z,101408.09
2023-04-03T20:03:18.493Z,101408.25
2023-04-03T20:06:21.564Z,101408.22
2023-04-03T20:09:23.415Z,101415.63
2023-04-03T20:12:27.459Z,101409.72
2023-04-03T20:15:30.951Z,101405.72
2023-04-03T20:18:34.070Z,101412.50
2023-04-03T20:21:36.476Z,101410.31
2023-04-03T20:24:39.403Z,101406.00
2023-04-03T20:27:42.626Z,101400.97
2023-04-03T20:30:47.627Z,101405.22
2023-04-03T20:33:49.463Z,101404.53
2023-04-03T20:36:52.023Z,101401.22
2023-04-03T20:39:53.820Z,101399.44
2023-04-03T20:42:56.962Z,101400.91
2023-04-03T20:45:59.903Z,101402.38
2023-04-03T20:49:01.678Z,101403.22
2023-04-03T20:52:04.490Z,101409.16
2023-04-03T20:55:07.491Z,101403.22
2023-04-03T20:58:11.386Z,101395.63
2023-04-03T21:01:16.146Z,101402.06
2023-04-03T21:04:23.178Z,101389.34
2023-04-03T21:08:02.909Z,101395.34
2023-04-03T21:11:42.315Z,101386.44
2023-04-03T21:15:23.205Z,101398.22
2023-04-03T21:18:48.301Z,101389.06
2023-04-03T21:21:51.958Z,101382.53
2023-04-03T21:24:53.818Z,101392.72
2023-04-03T21:27:56.231Z,101400.94
2023-04-03T21:30:58.148Z,101399.78
2023-04-03T21:34:06.619Z,101395.81
2023-04-03T21:37:09.583Z,101396.75
2023-04-03T21:40:11.545Z,101397.50
2023-04-03T21:43:13.610Z,101395.41
2023-04-03T21:46:15.879Z,101390.78
2023-04-03T21:49:19.398Z,101391.56
2023-04-03T21:52:21.283Z,101394.88
2023-04-03T21:55:23.527Z,101393.28
2023-04-03T21:58:30.599Z,101401.56
2023-04-03T22:01:32.904Z,101395.31
2023-04-03T22:04:36.056Z,101401.53
2023-04-03T22:07:38.844Z,101395.88
2023-04-03T22:10:41.517Z,101400.28
2023-04-03T22:13:46.611Z,101395.91
2023-04-03T22:16:48.345Z,101398.75
2023-04-03T22:19:51.601Z,101398.06
2023-04-03T22:22:53.622Z,101399.03
2023-04-03T22:25:59.634Z,101397.09
2023-04-03T22:29:01.680Z,101394.78
2023-04-03T22:32:05.956Z,101389.09
2023-04-03T22:35:09.982Z,101390.00
2023-04-03T22:38:13.129Z,101382.22
2023-04-03T22:41:14.962Z,101379.84
2023-04-03T22:44:17.829Z,101375.09
2023-04-03T22:47:19.542Z,101375.00
2023-04-03T22:50:26.964Z,101362.72
2023-04-03T22:53:28.893Z,101364.56
2023-04-03T22:56:30.738Z,101361.28
2023-04-03T22:59:32.761Z,101358.47
2023-04-03T23:02:34.534Z,101363.50
2023-04-03T23:05:39.162Z,101350.69
2023-04-03T23:08:42.122Z,101357.06
2023-04-03T23:11:46.651Z,101353.56
2023-04-03T23:14:49.814Z,101356.78
2023-04-03T23:17:51.926Z,101352.03
2023-04-03T23:20:55.354Z,101355.59
2023-04-03T23:23:57.396Z,101348.09
2023-04-03T23:26:59.123Z,101363.06
2023-04-03T23:30:01.303Z,101359.97
2023-04-03T23:33:03.838Z,101373.91
2023-04-03T23:36:12.879Z,101371.59
2023-04-03T23:39:14.774Z,101375.03
2023-04-03T23:42:17.371Z,101371.75
2023-04-03T23:45:19.329Z,101371.94
2023-04-03T23:48:21.910Z,101371.50
2023-04-03T23:51:25.910Z,101374.69
2023-04-03T23:54:27.672Z,101379.31
2023-04-03T23:57:29.505Z,101379.38
